Time;durP1;ratioP1;P1;durP2;ratioP2;P2;SDS_P1;SDS_P2;PMS_P1;PMS_P2;Temp;Humidity;BMP_temperature;BMP_pressure;BME280_temperature;BME280_humidity;BME280_pressure;Samples;Min_cycle;Max_cycle;Signal;HPM_P1;HPM_P2
2023/04/23 00:01:07;;;;;;;3.03;2.83;;;;;;;;;;5033391;28;20222;-85
2023/04/23 00:03:34;;;;;;;3.30;3.00;;;;;;;;;;5034245;28;20222;-85
2023/04/23 00:06:05;;;;;;;3.33;2.80;;;;;;;;;;5033775;28;20285;-85
2023/04/23 00:08:33;;;;;;;4.30;3.17;;;;;;;;;;5034096;28;20233;-84
2023/04/23 00:11:00;;;;;;;4.70;3.00;;;;;;;;;;5033003;28;20234;-85
2023/04/23 00:13:29;;;;;;;4.63;2.90;;;;;;;;;;5028870;28;20202;-85
2023/04/23 00:15:56;;;;;;;3.40;3.20;;;;;;;;;;5033097;28;20229;-85
2023/04/23 00:18:24;;;;;;;5.30;3.87;;;;;;;;;;5018387;28;20203;-85
2023/04/23 00:20:51;;;;;;;5.27;3.97;;;;;;;;;;5032994;28;20230;-85
2023/04/23 00:23:18;;;;;;;3.93;3.63;;;;;;;;;;5033528;28;20231;-86
2023/04/23 00:25:45;;;;;;;7.13;3.50;;;;;;;;;;5032860;28;20230;-85
2023/04/23 00:28:12;;;;;;;4.47;4.07;;;;;;;;;;5033268;28;20215;-86
2023/04/23 00:30:40;;;;;;;6.43;4.07;;;;;;;;;;5033032;28;20230;-86
2023/04/23 00:33:07;;;;;;;7.00;4.77;;;;;;;;;;5033754;28;20222;-84
2023/04/23 00:35:34;;;;;;;5.23;4.40;;;;;;;;;;5032917;28;20226;-85
2023/04/23 00:38:01;;;;;;;6.53;4.63;;;;;;;;;;5033463;28;20203;-85
2023/04/23 00:40:29;;;;;;;5.00;4.50;;;;;;;;;;5033046;28;20223;-85
2023/04/23 00:42:57;;;;;;;4.87;4.40;;;;;;;;;;5032847;28;20238;-85
2023/04/23 00:45:24;;;;;;;4.97;4.43;;;;;;;;;;5024845;28;20955;-85
2023/04/23 00:47:53;;;;;;;4.27;3.60;;;;;;;;;;5033200;28;20706;-85
2023/04/23 00:50:20;;;;;;;4.57;4.17;;;;;;;;;;5032561;28;20234;-84
2023/04/23 00:52:48;;;;;;;4.97;3.80;;;;;;;;;;5032868;28;20214;-85
2023/04/23 00:55:15;;;;;;;4.53;3.63;;;;;;;;;;5032388;28;20668;-85
2023/04/23 00:57:42;;;;;;;4.33;3.93;;;;;;;;;;5032184;28;20207;-85
2023/04/23 01:00:12;;;;;;;4.23;3.63;;;;;;;;;;5023081;28;20210;-85
2023/04/23 01:02:40;;;;;;;4.13;3.73;;;;;;;;;;5030281;28;20656;-85
2023/04/23 01:05:10;;;;;;;5.23;4.00;;;;;;;;;;5029433;28;20203;-85
2023/04/23 01:07:37;;;;;;;5.10;3.67;;;;;;;;;;5032881;28;20226;-85
2023/04/23 01:10:04;;;;;;;7.30;3.70;;;;;;;;;;5031798;28;20570;-85
2023/04/23 01:12:32;;;;;;;4.07;3.67;;;;;;;;;;5032308;28;20238;-85
2023/04/23 01:14:59;;;;;;;3.77;3.47;;;;;;;;;;5031813;28;20205;-86
2023/04/23 01:17:26;;;;;;;3.83;3.53;;;;;;;;;;5032298;28;20693;-86
2023/04/23 01:19:53;;;;;;;3.80;3.50;;;;;;;;;;5032587;28;20198;-86
2023/04/23 01:22:22;;;;;;;5.37;4.17;;;;;;;;;;5031886;28;20581;-85
2023/04/23 01:24:49;;;;;;;3.60;3.30;;;;;;;;;;5032630;28;20210;-86
2023/04/23 01:27:18;;;;;;;4.93;4.13;;;;;;;;;;5031915;28;20230;-86
2023/04/23 01:29:46;;;;;;;4.47;4.03;;;;;;;;;;5029172;28;20195;-87
2023/04/23 01:32:13;;;;;;;5.50;4.83;;;;;;;;;;5031803;28;20227;-87
2023/04/23 01:34:41;;;;;;;5.07;4.30;;;;;;;;;;5032709;28;20281;-86
2023/04/23 01:37:10;;;;;;;4.83;4.43;;;;;;;;;;5031591;28;20241;-87
2023/04/23 01:39:38;;;;;;;6.00;5.40;;;;;;;;;;5032407;28;20195;-86
2023/04/23 01:42:07;;;;;;;5.20;4.70;;;;;;;;;;5031331;28;20243;-87
2023/04/23 01:44:34;;;;;;;5.53;5.00;;;;;;;;;;5032009;28;20661;-87
2023/04/23 01:47:01;;;;;;;5.80;5.30;;;;;;;;;;5031671;28;20731;-86
2023/04/23 01:49:28;;;;;;;7.30;5.20;;;;;;;;;;5024059;28;20207;-87
2023/04/23 01:51:55;;;;;;;5.80;5.17;;;;;;;;;;5031630;28;20692;-87
2023/04/23 01:54:22;;;;;;;5.93;5.40;;;;;;;;;;5031993;28;20211;-87
2023/04/23 01:56:53;;;;;;;5.40;4.90;;;;;;;;;;5031481;28;20284;-87
2023/04/23 01:59:21;;;;;;;5.27;4.77;;;;;;;;;;5032261;28;20329;-86
2023/04/23 02:01:48;;;;;;;6.00;5.40;;;;;;;;;;5031457;28;20234;-87
2023/04/23 02:04:16;;;;;;;6.50;4.83;;;;;;;;;;5031812;28;20254;-86
2023/04/23 02:06:44;;;;;;;4.60;4.20;;;;;;;;;;5031463;28;20230;-87
2023/04/23 02:09:11;;;;;;;4.87;4.03;;;;;;;;;;5025907;28;20210;-87
2023/04/23 02:11:39;;;;;;;4.97;4.57;;;;;;;;;;5031431;28;20328;-86
2023/04/23 02:14:07;;;;;;;4.60;4.20;;;;;;;;;;5061464;23;20726;-84
2023/04/23 02:16:34;;;;;;;4.60;4.20;;;;;;;;;;5048324;28;20233;-84
2023/04/23 02:19:01;;;;;;;6.40;4.70;;;;;;;;;;5041694;28;20202;-84
2023/04/23 02:21:29;;;;;;;4.63;4.20;;;;;;;;;;5043968;28;20233;-84
2023/04/23 02:23:56;;;;;;;4.60;4.20;;;;;;;;;;5035927;28;20234;-84
2023/04/23 02:26:24;;;;;;;5.07;4.07;;;;;;;;;;5030006;28;20293;-84
2023/04/23 02:28:51;;;;;;;4.40;4.00;;;;;;;;;;5030933;28;20207;-84
2023/04/23 02:31:19;;;;;;;4.57;3.97;;;;;;;;;;5029353;28;20234;-84
2023/04/23 02:33:46;;;;;;;4.17;3.77;;;;;;;;;;5027768;28;20237;-84
2023/04/23 02:36:13;;;;;;;3.77;3.40;;;;;;;;;;5030213;28;20250;-84
2023/04/23 02:38:43;;;;;;;4.73;3.77;;;;;;;;;;5030752;28;20604;-84
2023/04/23 02:41:11;;;;;;;4.53;3.90;;;;;;;;;;5032084;28;20751;-84
2023/04/23 02:43:38;;;;;;;3.70;3.40;;;;;;;;;;5029661;28;20261;-84
2023/04/23 02:46:08;;;;;;;3.50;3.20;;;;;;;;;;5030344;28;20241;-84
2023/04/23 02:48:37;;;;;;;3.47;3.17;;;;;;;;;;5022804;28;20214;-84
2023/04/23 02:51:05;;;;;;;3.83;3.53;;;;;;;;;;5032373;28;20237;-84
2023/04/23 02:53:32;;;;;;;4.27;3.23;;;;;;;;;;5032527;28;20229;-84
2023/04/23 02:56:00;;;;;;;3.60;3.30;;;;;;;;;;5033770;28;20227;-84
2023/04/23 02:58:27;;;;;;;3.60;3.30;;;;;;;;;;5026766;28;20225;-84
2023/04/23 03:00:54;;;;;;;3.97;3.37;;;;;;;;;;5032421;28;20226;-84
2023/04/23 03:03:25;;;;;;;6.10;3.80;;;;;;;;;;5032394;28;20234;-84
2023/04/23 03:05:53;;;;;;;3.73;3.43;;;;;;;;;;5028644;28;20254;-84
2023/04/23 03:08:20;;;;;;;4.10;3.80;;;;;;;;;;5022946;28;20246;-84
2023/04/23 03:10:47;;;;;;;4.43;4.03;;;;;;;;;;5027067;28;20276;-81
2023/04/23 03:13:14;;;;;;;4.90;4.50;;;;;;;;;;5031902;28;20223;-84
2023/04/23 03:15:41;;;;;;;5.37;4.87;;;;;;;;;;5030759;28;20230;-82
2023/04/23 03:18:08;;;;;;;4.90;4.50;;;;;;;;;;5031807;28;20218;-82
2023/04/23 03:20:36;;;;;;;5.73;4.73;;;;;;;;;;5029444;28;20235;-82
2023/04/23 03:23:05;;;;;;;3.97;3.67;;;;;;;;;;5027995;28;20233;-83
2023/04/23 03:25:32;;;;;;;4.60;4.13;;;;;;;;;;5033242;28;20222;-83
2023/04/23 03:27:59;;;;;;;5.13;4.67;;;;;;;;;;5033025;28;20298;-83
2023/04/23 03:30:26;;;;;;;5.03;3.93;;;;;;;;;;5028801;28;20242;-82
2023/04/23 03:32:53;;;;;;;4.83;4.40;;;;;;;;;;5034114;28;20203;-83
2023/04/23 03:35:20;;;;;;;4.87;4.10;;;;;;;;;;5033286;28;20700;-83
2023/04/23 03:37:47;;;;;;;3.80;3.50;;;;;;;;;;5028710;28;20214;-83
2023/04/23 03:40:16;;;;;;;4.17;3.47;;;;;;;;;;5032524;28;20231;-83
2023/04/23 03:42:43;;;;;;;3.77;3.47;;;;;;;;;;5043614;28;20393;-83
2023/04/23 03:45:10;;;;;;;3.97;3.60;;;;;;;;;;5043425;28;20242;-83
2023/04/23 03:47:37;;;;;;;3.97;3.47;;;;;;;;;;5047913;28;20691;-83
2023/04/23 03:50:05;;;;;;;3.87;3.57;;;;;;;;;;5047480;28;20207;-83
2023/04/23 03:52:32;;;;;;;4.23;3.77;;;;;;;;;;5047749;28;20216;-83
2023/04/23 03:54:59;;;;;;;3.83;3.43;;;;;;;;;;5047514;28;20288;-84
2023/04/23 03:57:27;;;;;;;4.00;3.70;;;;;;;;;;5046680;28;20624;-83
2023/04/23 03:59:54;;;;;;;4.40;4.00;;;;;;;;;;5046847;28;20210;-84
2023/04/23 04:02:21;;;;;;;4.17;3.77;;;;;;;;;;5044321;28;20206;-83
2023/04/23 04:04:50;;;;;;;4.73;4.30;;;;;;;;;;5035567;28;20719;-83
2023/04/23 04:07:17;;;;;;;4.60;4.20;;;;;;;;;;5039023;28;20230;-83
2023/04/23 04:09:45;;;;;;;5.13;3.80;;;;;;;;;;5037739;28;20203;-82
2023/04/23 04:12:12;;;;;;;4.87;4.30;;;;;;;;;;5038445;28;20234;-82
2023/04/23 04:14:41;;;;;;;4.10;3.80;;;;;;;;;;5039752;28;20230;-83
2023/04/23 04:17:08;;;;;;;4.87;4.37;;;;;;;;;;5034104;28;20235;-83
2023/04/23 04:19:35;;;;;;;4.60;4.17;;;;;;;;;;5041148;28;20203;-83
2023/04/23 04:22:02;;;;;;;4.87;4.37;;;;;;;;;;5039371;28;20262;-82
2023/04/23 04:24:31;;;;;;;4.77;4.37;;;;;;;;;;5027550;28;20226;-83
2023/04/23 04:26:58;;;;;;;4.90;4.50;;;;;;;;;;5032636;28;20219;-83
2023/04/23 04:29:25;;;;;;;4.73;4.33;;;;;;;;;;5031157;28;20211;-83
2023/04/23 04:31:55;;;;;;;4.73;4.33;;;;;;;;;;5024477;28;20234;-83
2023/04/23 04:34:22;;;;;;;4.53;4.17;;;;;;;;;;5032509;28;20229;-83
2023/04/23 04:36:50;;;;;;;4.60;4.20;;;;;;;;;;5030549;28;20241;-83
2023/04/23 04:39:17;;;;;;;4.47;4.17;;;;;;;;;;5025455;28;20207;-83
2023/04/23 04:41:45;;;;;;;5.33;4.20;;;;;;;;;;5032343;28;20230;-83
2023/04/23 04:44:13;;;;;;;4.10;3.73;;;;;;;;;;5032638;28;20800;-83
2023/04/23 04:46:41;;;;;;;5.27;4.80;;;;;;;;;;5024255;28;20322;-83
2023/04/23 04:49:10;;;;;;;4.60;4.20;;;;;;;;;;5030346;28;20235;-83
2023/04/23 04:51:37;;;;;;;4.73;3.77;;;;;;;;;;5031861;28;20238;-83
2023/04/23 04:54:06;;;;;;;6.00;4.00;;;;;;;;;;5032561;28;20225;-83
2023/04/23 04:56:33;;;;;;;4.73;4.33;;;;;;;;;;5033389;28;20261;-83
2023/04/23 04:59:00;;;;;;;4.93;4.50;;;;;;;;;;5028180;28;20203;-83
2023/04/23 05:01:27;;;;;;;5.10;4.63;;;;;;;;;;5029376;28;20235;-83
2023/04/23 05:03:54;;;;;;;4.90;4.50;;;;;;;;;;5031035;28;20734;-83
2023/04/23 05:06:23;;;;;;;4.37;3.97;;;;;;;;;;5017807;28;20728;-82
2023/04/23 05:08:50;;;;;;;5.00;4.57;;;;;;;;;;5026602;28;20210;-83
2023/04/23 05:11:17;;;;;;;5.57;5.07;;;;;;;;;;5031205;28;20238;-83
2023/04/23 05:13:44;;;;;;;5.93;4.87;;;;;;;;;;5031078;28;20731;-83
2023/04/23 05:16:11;;;;;;;4.90;4.50;;;;;;;;;;5024574;28;20233;-83
2023/04/23 05:18:38;;;;;;;4.90;4.50;;;;;;;;;;5024761;28;20660;-83
2023/04/23 05:21:06;;;;;;;5.27;4.77;;;;;;;;;;5031651;28;20223;-83
2023/04/23 05:23:34;;;;;;;6.20;5.33;;;;;;;;;;5031669;28;20265;-83
2023/04/23 05:26:02;;;;;;;6.40;5.80;;;;;;;;;;5026636;28;20234;-83
2023/04/23 05:28:29;;;;;;;6.30;5.80;;;;;;;;;;5029208;28;20215;-84
2023/04/23 05:30:57;;;;;;;6.43;5.83;;;;;;;;;;5031318;28;20230;-83
2023/04/23 05:33:24;;;;;;;7.13;6.43;;;;;;;;;;5033982;28;20626;-82
2023/04/23 05:35:52;;;;;;;7.67;6.97;;;;;;;;;;5028871;28;20611;-83
2023/04/23 05:38:19;;;;;;;8.43;7.60;;;;;;;;;;5032411;28;20207;-82
2023/04/23 05:40:47;;;;;;;7.20;6.50;;;;;;;;;;5027340;28;20237;-83
2023/04/23 05:43:14;;;;;;;7.63;6.43;;;;;;;;;;5029848;28;20226;-83
2023/04/23 05:45:41;;;;;;;8.53;6.67;;;;;;;;;;5022791;28;20234;-82
2023/04/23 05:48:08;;;;;;;7.43;6.73;;;;;;;;;;5031566;28;20694;-83
2023/04/23 05:50:35;;;;;;;6.63;5.93;;;;;;;;;;5030543;28;20235;-83
2023/04/23 05:53:02;;;;;;;9.57;6.43;;;;;;;;;;5031128;28;20205;-83
2023/04/23 05:55:30;;;;;;;7.13;6.43;;;;;;;;;;5025924;28;20258;-83
2023/04/23 05:57:58;;;;;;;8.33;6.77;;;;;;;;;;5026424;28;20211;-83
2023/04/23 06:00:25;;;;;;;8.80;6.63;;;;;;;;;;5028284;28;20234;-83
2023/04/23 06:02:52;;;;;;;6.03;5.43;;;;;;;;;;5031949;28;20207;-83
2023/04/23 06:05:19;;;;;;;8.17;5.50;;;;;;;;;;5029848;28;20238;-82
2023/04/23 06:07:46;;;;;;;9.50;6.60;;;;;;;;;;5032954;28;20202;-83
2023/04/23 06:10:14;;;;;;;6.60;6.00;;;;;;;;;;5029140;28;20248;-82
2023/04/23 06:12:41;;;;;;;5.87;5.37;;;;;;;;;;5032690;28;20214;-82
2023/04/23 06:15:10;;;;;;;6.10;5.43;;;;;;;;;;5028232;28;20573;-83
2023/04/23 06:17:37;;;;;;;5.53;4.33;;;;;;;;;;5034775;28;20211;-83
2023/04/23 06:20:05;;;;;;;7.97;4.50;;;;;;;;;;5034417;28;20207;-83
2023/04/23 06:22:32;;;;;;;5.97;4.40;;;;;;;;;;5034201;28;20211;-84
2023/04/23 06:24:59;;;;;;;4.47;4.07;;;;;;;;;;5034813;28;20328;-85
2023/04/23 06:27:26;;;;;;;4.27;3.97;;;;;;;;;;5032725;28;20203;-83
2023/04/23 06:29:53;;;;;;;4.90;4.40;;;;;;;;;;5030206;28;20206;-85
2023/04/23 06:32:23;;;;;;;4.20;3.80;;;;;;;;;;5032477;28;20210;-82
2023/04/23 06:34:50;;;;;;;4.10;3.77;;;;;;;;;;5030950;28;20246;-82
2023/04/23 06:37:17;;;;;;;4.70;3.80;;;;;;;;;;5035197;28;20309;-82
2023/04/23 06:39:44;;;;;;;4.10;3.70;;;;;;;;;;5027861;28;20707;-83
2023/04/23 06:42:11;;;;;;;4.60;3.50;;;;;;;;;;5034216;28;20329;-82
2023/04/23 06:44:38;;;;;;;3.93;3.63;;;;;;;;;;5034497;28;20241;-83
2023/04/23 06:47:05;;;;;;;4.17;3.83;;;;;;;;;;5034816;28;20226;-84
2023/04/23 06:49:33;;;;;;;6.73;3.77;;;;;;;;;;5028224;28;20211;-83
2023/04/23 06:52:00;;;;;;;3.60;3.30;;;;;;;;;;5030657;28;20227;-83
2023/04/23 06:54:28;;;;;;;3.77;3.47;;;;;;;;;;5026081;28;20239;-83
2023/04/23 06:56:55;;;;;;;3.83;3.40;;;;;;;;;;5034131;28;20248;-82
2023/04/23 06:59:22;;;;;;;4.77;3.47;;;;;;;;;;5033953;28;20573;-84
2023/04/23 07:01:49;;;;;;;5.00;3.30;;;;;;;;;;5026329;28;20234;-84
2023/04/23 07:04:16;;;;;;;3.53;3.23;;;;;;;;;;5029017;28;20235;-83
2023/04/23 07:06:45;;;;;;;3.27;2.93;;;;;;;;;;5034238;28;20235;-84
2023/04/23 07:09:12;;;;;;;2.63;2.43;;;;;;;;;;5034641;28;20207;-84
2023/04/23 07:11:39;;;;;;;5.40;3.13;;;;;;;;;;5033909;28;20235;-84
2023/04/23 07:14:07;;;;;;;3.90;3.60;;;;;;;;;;5034533;28;20236;-82
2023/04/23 07:16:35;;;;;;;3.43;3.10;;;;;;;;;;5033823;28;20231;-84
2023/04/23 07:19:02;;;;;;;3.60;3.30;;;;;;;;;;5034298;28;20576;-84
2023/04/23 07:21:29;;;;;;;3.83;3.30;;;;;;;;;;5033515;28;20226;-84
2023/04/23 07:23:59;;;;;;;3.80;3.50;;;;;;;;;;5034140;28;20680;-84
2023/04/23 07:26:26;;;;;;;3.47;3.17;;;;;;;;;;5033020;28;20587;-84
2023/04/23 07:28:53;;;;;;;3.30;3.00;;;;;;;;;;5027077;28;20230;-84
2023/04/23 07:31:21;;;;;;;4.00;3.70;;;;;;;;;;5033581;28;20576;-85
2023/04/23 07:33:48;;;;;;;4.97;3.40;;;;;;;;;;5025741;28;20284;-85
2023/04/23 07:36:15;;;;;;;3.20;3.00;;;;;;;;;;5033796;28;20238;-86
2023/04/23 07:38:42;;;;;;;4.20;3.00;;;;;;;;;;5033699;28;20257;-84
2023/04/23 07:41:10;;;;;;;4.57;3.30;;;;;;;;;;5033379;28;20246;-84
2023/04/23 07:43:39;;;;;;;2.83;2.63;;;;;;;;;;5033805;28;20222;-83
2023/04/23 07:46:07;;;;;;;3.67;3.37;;;;;;;;;;5031347;28;20727;-83
2023/04/23 07:48:34;;;;;;;3.37;3.07;;;;;;;;;;5032272;28;20257;-83
2023/04/23 07:51:01;;;;;;;3.33;3.03;;;;;;;;;;5028267;28;20305;-84
2023/04/23 07:53:28;;;;;;;3.00;2.70;;;;;;;;;;5030676;28;20238;-84
2023/04/23 07:55:56;;;;;;;3.40;3.10;;;;;;;;;;5032437;28;20230;-83
2023/04/23 07:58:25;;;;;;;3.17;2.97;;;;;;;;;;5035734;28;20211;-84
2023/04/23 08:00:52;;;;;;;3.60;3.10;;;;;;;;;;5022884;28;20269;-82
2023/04/23 08:03:19;;;;;;;3.90;3.00;;;;;;;;;;5032111;28;20230;-84
2023/04/23 08:05:46;;;;;;;3.17;2.97;;;;;;;;;;5026745;28;20610;-82
2023/04/23 08:08:13;;;;;;;2.90;2.63;;;;;;;;;;5027753;28;20210;-83
2023/04/23 08:10:41;;;;;;;3.27;2.87;;;;;;;;;;5032693;28;20234;-83
2023/04/23 08:13:08;;;;;;;3.40;3.10;;;;;;;;;;5033251;28;20229;-84
2023/04/23 08:15:36;;;;;;;3.20;2.90;;;;;;;;;;5033139;28;20234;-83
2023/04/23 08:18:04;;;;;;;2.83;2.60;;;;;;;;;;5031109;28;20207;-84
2023/04/23 08:20:31;;;;;;;2.70;2.50;;;;;;;;;;5029892;28;20235;-84
2023/04/23 08:22:58;;;;;;;3.43;2.70;;;;;;;;;;5033537;28;20227;-83
2023/04/23 08:25:25;;;;;;;2.70;2.50;;;;;;;;;;5027234;28;20250;-83
2023/04/23 08:27:52;;;;;;;2.87;2.67;;;;;;;;;;5026764;28;20217;-84
2023/04/23 08:30:20;;;;;;;3.30;2.77;;;;;;;;;;5026853;28;20640;-84
2023/04/23 08:32:49;;;;;;;2.97;2.40;;;;;;;;;;5033786;28;20211;-83
2023/04/23 08:35:16;;;;;;;2.70;2.50;;;;;;;;;;5032765;28;20325;-83
2023/04/23 08:37:43;;;;;;;3.03;2.83;;;;;;;;;;5031902;28;20213;-82
2023/04/23 08:40:11;;;;;;;4.90;2.80;;;;;;;;;;5025054;28;20289;-82
2023/04/23 08:42:40;;;;;;;2.65;2.45;;;;;;;;;;5032616;28;20234;-84
2023/04/23 08:45:08;;;;;;;2.93;2.73;;;;;;;;;;5032515;28;20235;-84
2023/04/23 08:47:35;;;;;;;3.67;2.75;;;;;;;;;;5027452;28;20200;-83
2023/04/23 08:50:04;;;;;;;4.33;2.70;;;;;;;;;;5032517;28;20198;-84
2023/04/23 08:52:34;;;;;;;2.85;2.47;;;;;;;;;;5032807;28;20703;-84
2023/04/23 08:55:02;;;;;;;2.63;2.40;;;;;;;;;;5028195;28;20706;-83
2023/04/23 08:57:29;;;;;;;3.08;2.53;;;;;;;;;;5022346;28;20260;-85
2023/04/23 08:59:56;;;;;;;2.67;2.47;;;;;;;;;;5027261;28;20211;-85
2023/04/23 09:02:23;;;;;;;4.47;2.70;;;;;;;;;;5029243;28;20207;-84
2023/04/23 09:04:53;;;;;;;2.80;2.60;;;;;;;;;;5030170;28;20222;-85
2023/04/23 09:07:21;;;;;;;3.10;2.80;;;;;;;;;;5032101;28;20230;-83
2023/04/23 09:09:48;;;;;;;4.78;2.40;;;;;;;;;;5031507;28;20206;-83
2023/04/23 09:12:15;;;;;;;4.15;2.20;;;;;;;;;;5031712;28;20234;-83
2023/04/23 09:14:42;;;;;;;2.58;2.38;;;;;;;;;;5031926;28;20237;-84
2023/04/23 09:17:09;;;;;;;2.80;2.60;;;;;;;;;;5031640;28;20238;-84
2023/04/23 09:19:37;;;;;;;2.83;2.58;;;;;;;;;;5030199;28;20211;-83
2023/04/23 09:22:05;;;;;;;2.90;2.55;;;;;;;;;;5031227;28;20317;-84
2023/04/23 09:24:34;;;;;;;2.67;2.20;;;;;;;;;;5026569;28;20245;-84
2023/04/23 09:27:02;;;;;;;3.35;2.40;;;;;;;;;;5030460;28;20226;-84
2023/04/23 09:29:31;;;;;;;4.65;2.60;;;;;;;;;;5031439;28;20237;-85
2023/04/23 09:32:04;;;;;;;2.40;2.20;;;;;;;;;;5030437;28;20231;-84
2023/04/23 09:34:35;;;;;;;2.33;2.13;;;;;;;;;;5031235;28;20227;-85
2023/04/23 09:37:02;;;;;;;3.38;2.28;;;;;;;;;;5030431;28;20704;-84
2023/04/23 09:39:29;;;;;;;2.00;1.90;;;;;;;;;;5031442;28;20238;-84
2023/04/23 09:42:03;;;;;;;2.47;2.25;;;;;;;;;;5015249;28;20235;-84
2023/04/23 09:44:31;;;;;;;2.60;1.98;;;;;;;;;;5031163;28;20230;-84
2023/04/23 09:47:06;;;;;;;2.17;2.08;;;;;;;;;;5020016;28;20699;-84
2023/04/23 09:49:33;;;;;;;1.98;1.88;;;;;;;;;;5026604;28;20206;-85
2023/04/23 09:52:06;;;;;;;1.98;1.88;;;;;;;;;;5025236;28;20242;-84
2023/04/23 09:54:33;;;;;;;2.40;2.00;;;;;;;;;;5031445;28;20226;-84
2023/04/23 09:57:02;;;;;;;2.00;1.90;;;;;;;;;;5031300;28;20284;-84
2023/04/23 09:59:31;;;;;;;2.10;2.00;;;;;;;;;;5031559;28;20213;-84
2023/04/23 10:02:02;;;;;;;2.38;1.90;;;;;;;;;;5023012;28;20237;-85
2023/04/23 10:04:29;;;;;;;1.80;1.70;;;;;;;;;;5031257;28;20569;-84
2023/04/23 10:06:57;;;;;;;2.00;1.90;;;;;;;;;;5022733;28;20612;-84
2023/04/23 10:09:24;;;;;;;1.90;1.80;;;;;;;;;;5031389;28;20680;-84
2023/04/23 10:11:52;;;;;;;2.28;1.73;;;;;;;;;;5030769;28;20241;-84
2023/04/23 10:14:21;;;;;;;2.20;1.70;;;;;;;;;;5031322;28;20328;-84
2023/04/23 10:16:50;;;;;;;2.10;2.00;;;;;;;;;;5030619;28;20227;-85
2023/04/23 10:19:18;;;;;;;2.55;1.65;;;;;;;;;;5031396;28;20203;-84
2023/04/23 10:21:47;;;;;;;2.65;1.80;;;;;;;;;;5030498;28;20226;-84
2023/04/23 10:24:15;;;;;;;3.40;2.13;;;;;;;;;;5031606;28;20229;-84
2023/04/23 10:26:42;;;;;;;2.15;1.95;;;;;;;;;;5030659;28;20239;-84
2023/04/23 10:29:14;;;;;;;2.00;1.80;;;;;;;;;;5031037;28;20698;-82
2023/04/23 10:31:42;;;;;;;2.28;2.08;;;;;;;;;;5030425;28;20262;-84
2023/04/23 10:34:10;;;;;;;2.13;1.90;;;;;;;;;;5031152;28;20235;-84
2023/04/23 10:36:37;;;;;;;1.73;1.63;;;;;;;;;;5030623;28;20237;-84
2023/04/23 10:39:07;;;;;;;1.40;1.30;;;;;;;;;;5031164;28;20210;-84
2023/04/23 10:41:36;;;;;;;1.63;1.52;;;;;;;;;;5030571;28;20317;-84
2023/04/23 10:44:03;;;;;;;4.00;1.80;;;;;;;;;;5030854;28;20318;-84
2023/04/23 10:46:31;;;;;;;4.40;1.80;;;;;;;;;;5030471;28;20234;-84
2023/04/23 10:49:07;;;;;;;1.60;1.50;;;;;;;;;;5030847;28;20206;-84
2023/04/23 10:51:34;;;;;;;1.98;1.75;;;;;;;;;;5030427;28;20230;-82
2023/04/23 10:54:02;;;;;;;2.47;1.65;;;;;;;;;;5030791;28;20252;-84
2023/04/23 10:56:31;;;;;;;2.55;1.70;;;;;;;;;;5030531;28;20266;-84
2023/04/23 10:58:58;;;;;;;2.38;1.95;;;;;;;;;;5030747;28;20210;-84
2023/04/23 11:01:25;;;;;;;1.85;1.40;;;;;;;;;;5031263;28;20231;-84
2023/04/23 11:03:52;;;;;;;2.72;1.65;;;;;;;;;;5034282;28;20280;-84
2023/04/23 11:06:42;;;;;;;1.83;1.70;;;;;;;;;;5034239;28;20246;-84
2023/04/23 11:09:24;;;;;;;2.92;2.72;;;;;;;;;;5027500;28;20234;-84
2023/04/23 11:11:51;;;;;;;1.67;1.50;;;;;;;;;;5033574;28;20240;-82
2023/04/23 11:14:18;;;;;;;3.05;1.83;;;;;;;;;;5034332;28;20292;-82
2023/04/23 11:16:45;;;;;;;1.52;1.42;;;;;;;;;;5033838;28;20226;-82
2023/04/23 11:19:14;;;;;;;3.25;1.70;;;;;;;;;;5034263;28;20211;-83
2023/04/23 11:21:58;;;;;;;1.80;1.60;;;;;;;;;;5033637;28;20667;-83
2023/04/23 11:24:25;;;;;;;2.60;1.80;;;;;;;;;;5034123;28;20227;-83
2023/04/23 11:26:53;;;;;;;1.48;1.38;;;;;;;;;;5033325;28;20231;-84
2023/04/23 11:29:22;;;;;;;1.60;1.50;;;;;;;;;;5034259;28;20206;-83
2023/04/23 11:31:49;;;;;;;1.70;1.60;;;;;;;;;;5033399;28;20668;-83
2023/04/23 11:34:16;;;;;;;1.48;1.38;;;;;;;;;;5034264;28;20317;-83
2023/04/23 11:36:43;;;;;;;1.60;1.50;;;;;;;;;;5033616;28;20329;-83
2023/04/23 11:39:12;;;;;;;1.75;1.35;;;;;;;;;;5033984;28;20199;-83
2023/04/23 11:41:39;;;;;;;2.53;1.40;;;;;;;;;;5033345;28;20322;-83
2023/04/23 11:44:07;;;;;;;1.90;1.80;;;;;;;;;;5033607;28;20708;-83
2023/04/23 11:46:34;;;;;;;1.75;1.52;;;;;;;;;;5033251;28;20231;-83
2023/04/23 11:49:01;;;;;;;1.70;1.60;;;;;;;;;;5033034;28;20577;-83
2023/04/23 11:51:28;;;;;;;1.65;1.55;;;;;;;;;;5033246;28;20234;-83
2023/04/23 11:53:55;;;;;;;1.70;1.60;;;;;;;;;;5033320;28;20230;-83
2023/04/23 11:56:24;;;;;;;1.95;1.42;;;;;;;;;;5033396;28;20230;-83
2023/04/23 11:58:59;;;;;;;2.60;1.45;;;;;;;;;;5033372;28;20268;-83
2023/04/23 12:01:26;;;;;;;2.55;2.05;;;;;;;;;;5033304;28;20665;-82
2023/04/23 12:03:53;;;;;;;1.73;1.60;;;;;;;;;;5033198;28;20234;-83
2023/04/23 12:06:20;;;;;;;1.30;1.30;;;;;;;;;;5033164;28;20296;-82
2023/04/23 12:08:47;;;;;;;2.50;1.60;;;;;;;;;;5033276;28;20258;-83
2023/04/23 12:11:14;;;;;;;1.15;1.05;;;;;;;;;;5032976;28;20269;-83
2023/04/23 12:13:42;;;;;;;1.92;1.60;;;;;;;;;;5032721;28;20635;-83
2023/04/23 12:16:09;;;;;;;1.83;1.38;;;;;;;;;;5033029;28;20233;-83
2023/04/23 12:18:41;;;;;;;3.05;1.52;;;;;;;;;;5033229;28;20203;-83
2023/04/23 12:21:08;;;;;;;1.42;1.33;;;;;;;;;;5025067;28;20314;-84
2023/04/23 12:23:36;;;;;;;1.60;1.50;;;;;;;;;;5033040;28;20272;-84
2023/04/23 12:26:03;;;;;;;1.50;1.40;;;;;;;;;;5032485;28;20230;-84
2023/04/23 12:28:31;;;;;;;2.45;1.48;;;;;;;;;;5033086;28;20206;-84
2023/04/23 12:31:01;;;;;;;1.42;1.33;;;;;;;;;;5032636;28;20234;-85
2023/04/23 12:33:29;;;;;;;1.92;1.65;;;;;;;;;;5033588;28;20238;-84
2023/04/23 12:35:56;;;;;;;1.27;1.17;;;;;;;;;;5032795;28;20259;-84
2023/04/23 12:38:24;;;;;;;1.48;1.00;;;;;;;;;;5033515;28;20238;-84
2023/04/23 12:40:54;;;;;;;1.25;1.13;;;;;;;;;;5033300;28;20238;-83
2023/04/23 12:43:21;;;;;;;2.15;1.15;;;;;;;;;;5033801;28;20747;-84
2023/04/23 12:45:48;;;;;;;1.80;1.30;;;;;;;;;;5033302;28;20235;-83
2023/04/23 12:48:17;;;;;;;1.00;1.00;;;;;;;;;;5033422;28;20218;-84
2023/04/23 12:50:45;;;;;;;2.08;1.30;;;;;;;;;;5032104;28;20708;-84
2023/04/23 12:53:12;;;;;;;1.65;1.17;;;;;;;;;;5032592;28;20210;-83
2023/04/23 12:55:41;;;;;;;1.20;1.20;;;;;;;;;;5032112;28;20721;-84
2023/04/23 12:58:09;;;;;;;1.00;1.00;;;;;;;;;;5027913;28;20257;-83
2023/04/23 13:00:36;;;;;;;1.20;1.20;;;;;;;;;;5031839;28;20260;-83
2023/04/23 13:03:03;;;;;;;1.08;1.00;;;;;;;;;;5031161;28;20210;-86
2023/04/23 13:05:32;;;;;;;1.15;1.10;;;;;;;;;;5027596;28;20226;-87
2023/04/23 13:07:59;;;;;;;1.13;0.90;;;;;;;;;;5034228;28;20194;-88
2023/04/23 13:10:26;;;;;;;3.28;1.10;;;;;;;;;;5029530;28;20231;-88
2023/04/23 13:12:53;;;;;;;1.60;1.20;;;;;;;;;;5032991;28;20203;-88
2023/04/23 13:15:20;;;;;;;1.10;1.10;;;;;;;;;;5031977;28;20234;-87
2023/04/23 13:17:47;;;;;;;1.25;1.25;;;;;;;;;;5032313;28;20213;-87
2023/04/23 13:20:14;;;;;;;1.75;1.23;;;;;;;;;;5031788;28;20603;-87
2023/04/23 13:22:43;;;;;;;1.35;1.20;;;;;;;;;;5033069;28;20215;-87
2023/04/23 13:25:10;;;;;;;1.23;1.13;;;;;;;;;;5031095;28;20234;-85
2023/04/23 13:27:38;;;;;;;2.67;1.17;;;;;;;;;;5030127;28;20726;-87
2023/04/23 13:30:06;;;;;;;1.58;1.13;;;;;;;;;;5024823;28;20207;-88
2023/04/23 13:32:33;;;;;;;1.38;1.20;;;;;;;;;;5027390;28;20248;-85
2023/04/23 13:35:03;;;;;;;2.05;1.10;;;;;;;;;;5032105;28;20226;-89
2023/04/23 13:37:31;;;;;;;1.30;1.15;;;;;;;;;;5036691;28;20235;-88
2023/04/23 13:39:59;;;;;;;1.33;1.20;;;;;;;;;;5035213;28;20206;-89
2023/04/23 13:42:26;;;;;;;1.58;1.13;;;;;;;;;;5035162;28;20634;-90
2023/04/23 13:44:53;;;;;;;1.08;1.08;;;;;;;;;;5034083;28;20226;-85
2023/04/23 13:47:20;;;;;;;1.27;1.00;;;;;;;;;;5033316;28;20723;-89
2023/04/23 13:49:48;;;;;;;1.10;1.10;;;;;;;;;;5033295;28;20205;-90
2023/04/23 13:52:15;;;;;;;1.42;0.98;;;;;;;;;;5032647;28;20234;-89
2023/04/23 13:54:42;;;;;;;1.30;1.20;;;;;;;;;;5033137;28;20238;-89
2023/04/23 13:57:10;;;;;;;1.75;0.98;;;;;;;;;;5032892;28;20226;-89
2023/04/23 13:59:38;;;;;;;1.38;1.17;;;;;;;;;;5032679;28;20209;-86
2023/04/23 14:02:05;;;;;;;1.48;1.38;;;;;;;;;;5030993;28;20238;-88
2023/04/23 14:04:32;;;;;;;3.63;1.13;;;;;;;;;;5032174;28;20658;-90
2023/04/23 14:06:59;;;;;;;2.50;0.90;;;;;;;;;;5032225;28;20226;-88
2023/04/23 14:09:26;;;;;;;1.23;1.10;;;;;;;;;;5029620;28;20206;-90
2023/04/23 14:11:53;;;;;;;1.52;1.40;;;;;;;;;;5030874;28;20712;-90
2023/04/23 14:14:21;;;;;;;0.90;0.90;;;;;;;;;;5029026;28;20637;-90
2023/04/23 14:16:48;;;;;;;1.17;1.10;;;;;;;;;;5030629;28;20226;-91
2023/04/23 14:19:16;;;;;;;1.17;1.05;;;;;;;;;;5031160;28;20199;-90
2023/04/23 14:21:43;;;;;;;0.90;0.80;;;;;;;;;;5029150;28;20238;-90
2023/04/23 14:24:17;;;;;;;0.90;0.90;;;;;;;;;;5030161;28;20230;-90
2023/04/23 14:26:47;;;;;;;1.95;1.13;;;;;;;;;;5021618;28;20260;-90
2023/04/23 14:29:18;;;;;;;1.73;0.90;;;;;;;;;;5024705;28;20210;-90
2023/04/23 14:31:47;;;;;;;3.60;1.05;;;;;;;;;;5032191;28;20237;-90
2023/04/23 14:34:14;;;;;;;1.80;0.90;;;;;;;;;;5032291;28;20227;-89
2023/04/23 14:36:41;;;;;;;0.80;0.68;;;;;;;;;;5034142;28;20222;-89
2023/04/23 14:39:08;;;;;;;1.80;1.20;;;;;;;;;;5038370;28;20204;-91
2023/04/23 14:41:36;;;;;;;1.98;1.17;;;;;;;;;;5036139;28;20229;-90
2023/04/23 14:44:03;;;;;;;2.03;1.17;;;;;;;;;;5035966;28;20295;-90
2023/04/23 14:46:30;;;;;;;1.40;1.30;;;;;;;;;;5035316;28;20226;-90